Time;durP1;ratioP1;P1;durP2;ratioP2;P2;SDS_P1;SDS_P2;PMS_P1;PMS_P2;Temp;Humidity;BMP_temperature;BMP_pressure;BME280_temperature;BME280_humidity;BME280_pressure;Samples;Min_cycle;Max_cycle;Signal;HPM_P1;HPM_P2
2021/10/15 00:04:28;;;;;;;5.90;3.90;;;17.50;74.00;;;;;;10497291;28;20067;-56
2021/10/15 00:09:29;;;;;;;6.00;4.30;;;17.50;74.00;;;;;;10497210;28;20044;-55
2021/10/15 00:14:29;;;;;;;5.88;4.28;;;17.50;73.90;;;;;;10485660;28;20040;-55
2021/10/15 00:19:30;;;;;;;5.13;3.70;;;17.40;73.90;;;;;;10497365;28;20039;-55
2021/10/15 00:24:31;;;;;;;5.38;4.22;;;17.40;73.90;;;;;;10496888;28;20386;-54
2021/10/15 00:29:32;;;;;;;5.43;3.38;;;17.50;73.90;;;;;;10496687;28;20515;-55
2021/10/15 00:34:33;;;;;;;5.47;3.83;;;17.40;73.80;;;;;;10496923;28;20041;-55
2021/10/15 00:39:33;;;;;;;6.78;4.63;;;17.40;73.80;;;;;;10496649;28;20049;-56
2021/10/15 00:44:37;;;;;;;6.38;3.58;;;17.40;73.70;;;;;;10496453;28;20104;-56
2021/10/15 00:49:38;;;;;;;4.60;3.58;;;17.50;73.60;;;;;;10489523;28;20032;-56
2021/10/15 00:54:39;;;;;;;5.03;3.40;;;17.50;73.50;;;;;;10496304;28;20108;-55
2021/10/15 00:59:41;;;;;;;4.25;3.42;;;17.50;73.50;;;;;;10494862;28;20033;-55
2021/10/15 01:04:41;;;;;;;4.38;3.22;;;17.50;73.50;;;;;;10485078;28;20031;-56
2021/10/15 01:09:42;;;;;;;4.80;3.38;;;17.40;73.50;;;;;;10494776;28;20425;-55
2021/10/15 01:14:43;;;;;;;6.20;3.22;;;17.50;73.50;;;;;;10494545;28;20546;-55
2021/10/15 01:19:43;;;;;;;4.82;3.88;;;17.40;73.50;;;;;;10496143;28;20174;-54
2021/10/15 01:24:44;;;;;;;4.85;3.05;;;17.50;73.50;;;;;;10495649;28;20032;-55
2021/10/15 01:29:45;;;;;;;4.55;3.70;;;17.50;73.50;;;;;;10495807;28;20056;-56
2021/10/15 01:34:46;;;;;;;5.45;3.55;;;17.50;73.50;;;;;;10495173;28;20385;-54
2021/10/15 01:39:47;;;;;;;6.78;3.33;;;17.50;73.50;;;;;;10497960;28;20044;-53
2021/10/15 01:44:47;;;;;;;5.15;3.45;;;17.50;73.50;;;;;;10502671;28;20068;-55
2021/10/15 01:49:48;;;;;;;4.80;3.38;;;17.40;73.30;;;;;;10502601;28;20163;-55
2021/10/15 01:54:49;;;;;;;3.85;3.30;;;17.50;73.40;;;;;;10518283;28;20056;-56
2021/10/15 01:59:49;;;;;;;5.40;3.88;;;17.50;73.30;;;;;;10502222;28;20119;-56
2021/10/15 02:04:52;;;;;;;4.85;3.40;;;17.50;73.40;;;;;;10502064;28;20025;-55
2021/10/15 02:09:52;;;;;;;3.63;2.67;;;17.50;73.40;;;;;;10502004;28;20447;-55
2021/10/15 02:14:53;;;;;;;3.83;2.95;;;17.50;73.30;;;;;;10501453;28;20129;-56
2021/10/15 02:19:54;;;;;;;5.88;3.63;;;17.50;73.30;;;;;;10500264;28;20396;-55
2021/10/15 02:24:54;;;;;;;4.47;3.72;;;17.40;73.20;;;;;;10500880;28;20063;-55
2021/10/15 02:29:55;;;;;;;4.10;3.00;;;17.50;73.20;;;;;;10501016;28;20028;-55
2021/10/15 02:34:56;;;;;;;5.00;2.90;;;17.50;73.20;;;;;;10500767;28;20056;-55
2021/10/15 02:39:56;;;;;;;3.67;2.78;;;17.50;73.20;;;;;;10500671;28;20033;-56
2021/10/15 02:44:57;;;;;;;4.63;3.65;;;17.40;73.80;;;;;;10500212;28;20064;-54
2021/10/15 02:49:58;;;;;;;4.18;3.17;;;17.50;73.30;;;;;;10510160;28;20074;-56
2021/10/15 02:54:59;;;;;;;4.50;3.13;;;17.40;73.10;;;;;;10500088;28;20067;-54
2021/10/15 02:59:59;;;;;;;4.38;3.22;;;17.50;73.20;;;;;;10498773;28;20074;-55
2021/10/15 03:05:00;;;;;;;4.18;3.30;;;17.50;73.10;;;;;;10499457;28;20150;-56
2021/10/15 03:10:02;;;;;;;4.25;3.00;;;17.40;73.10;;;;;;10499722;28;20056;-56
2021/10/15 03:15:03;;;;;;;4.65;3.35;;;17.50;73.10;;;;;;10499080;28;20048;-55
2021/10/15 03:20:05;;;;;;;5.15;3.03;;;17.50;73.10;;;;;;10499097;28;20389;-56
2021/10/15 03:25:06;;;;;;;4.97;3.30;;;17.50;73.10;;;;;;10497320;28;20036;-56
2021/10/15 03:30:08;;;;;;;5.30;3.47;;;17.40;73.10;;;;;;10513744;28;20032;-54
2021/10/15 03:35:09;;;;;;;3.38;2.63;;;17.50;73.10;;;;;;10497010;28;20038;-55
2021/10/15 03:40:11;;;;;;;3.95;2.85;;;17.50;73.00;;;;;;10498049;28;20044;-55
2021/10/15 03:45:12;;;;;;;4.82;3.67;;;17.50;73.00;;;;;;10496843;28;20032;-54
2021/10/15 03:50:14;;;;;;;3.95;3.20;;;17.50;73.00;;;;;;10502642;28;20071;-55
2021/10/15 03:55:15;;;;;;;4.85;3.17;;;17.50;73.00;;;;;;10497788;28;20032;-55
2021/10/15 04:00:16;;;;;;;4.93;3.05;;;17.40;73.00;;;;;;10497559;28;20029;-54
2021/10/15 04:05:16;;;;;;;5.47;3.75;;;17.40;73.00;;;;;;10496035;28;20035;-55
2021/10/15 04:10:17;;;;;;;4.68;3.30;;;17.50;73.00;;;;;;10495501;28;20036;-55
2021/10/15 04:15:18;;;;;;;3.97;2.75;;;17.50;73.00;;;;;;10491646;28;20028;-55
2021/10/15 04:20:18;;;;;;;3.60;2.72;;;17.40;73.00;;;;;;10485677;28;20108;-56
2021/10/15 04:25:19;;;;;;;4.45;3.00;;;17.40;73.00;;;;;;10496946;28;20489;-55
2021/10/15 04:30:20;;;;;;;4.35;2.92;;;17.50;73.00;;;;;;10496080;28;20028;-55
2021/10/15 04:35:21;;;;;;;5.47;3.47;;;17.50;72.70;;;;;;10487635;28;20035;-56
2021/10/15 04:40:21;;;;;;;3.95;2.97;;;17.60;72.50;;;;;;10494966;28;20036;-56
2021/10/15 04:45:22;;;;;;;3.35;2.63;;;17.80;71.90;;;;;;10494971;28;20112;-56
2021/10/15 04:50:23;;;;;;;6.47;3.25;;;18.10;71.00;;;;;;10501513;28;20111;-57
2021/10/15 04:55:24;;;;;;;7.50;3.78;;;18.40;70.80;;;;;;10494665;28;20024;-56
2021/10/15 05:00:25;;;;;;;9.75;3.58;;;18.60;71.40;;;;;;10495911;28;20076;-54
2021/10/15 05:05:28;;;;;;;9.65;4.97;;;18.80;72.30;;;;;;10495361;28;20029;-52
2021/10/15 05:10:29;;;;;;;13.02;4.00;;;18.80;72.10;;;;;;10495093;28;20498;-55
2021/10/15 05:15:29;;;;;;;7.22;3.90;;;18.80;71.80;;;;;;10497612;28;20155;-56
2021/10/15 05:20:30;;;;;;;10.82;3.75;;;18.70;72.60;;;;;;10502885;28;20029;-54
2021/10/15 05:25:31;;;;;;;7.45;3.35;;;18.70;72.10;;;;;;10491739;28;20056;-53
2021/10/15 05:30:32;;;;;;;10.23;3.63;;;18.60;73.00;;;;;;10503642;28;20071;-56
2021/10/15 05:35:32;;;;;;;17.05;3.85;;;18.50;72.70;;;;;;10501040;28;20125;-56
2021/10/15 05:40:33;;;;;;;12.90;3.92;;;18.40;72.70;;;;;;10501400;28;20039;-55
2021/10/15 05:45:34;;;;;;;12.75;4.10;;;18.40;73.40;;;;;;10503084;28;20021;-53
2021/10/15 05:50:35;;;;;;;7.25;3.33;;;18.50;73.20;;;;;;10507046;28;20546;-52
2021/10/15 06:00:55;;;;;;;12.77;4.05;;;18.40;73.00;;;;;;10505574;28;20119;-56
2021/10/15 06:07:00;;;;;;;15.65;4.28;;;18.40;73.10;;;;;;10501858;28;20040;-57
2021/10/15 06:16:55;;;;;;;19.07;4.80;;;18.40;73.70;;;;;;10450765;28;20044;-54
2021/10/15 06:21:55;;;;;;;11.48;4.30;;;18.40;73.20;;;;;;10496848;28;20064;-56
2021/10/15 06:26:56;;;;;;;8.75;3.70;;;18.20;73.40;;;;;;10494993;28;20139;-56
2021/10/15 06:31:57;;;;;;;9.73;3.50;;;18.10;73.60;;;;;;10498699;28;20066;-56
2021/10/15 06:36:57;;;;;;;12.43;4.07;;;18.10;73.70;;;;;;10499560;28;20101;-56
2021/10/15 06:41:58;;;;;;;10.20;3.63;;;18.10;74.30;;;;;;10500794;28;20107;-57
2021/10/15 06:46:58;;;;;;;13.82;3.95;;;18.10;74.20;;;;;;10500285;28;20071;-57
2021/10/15 06:51:59;;;;;;;14.77;4.45;;;18.10;73.90;;;;;;10509694;28;20068;-56
2021/10/15 06:57:00;;;;;;;10.93;3.65;;;18.10;74.10;;;;;;10499728;28;20032;-57
2021/10/15 07:02:01;;;;;;;16.17;4.63;;;18.10;74.30;;;;;;10499334;28;20480;-57
2021/10/15 07:07:03;;;;;;;11.65;3.80;;;18.10;75.00;;;;;;10499040;28;20025;-57
2021/10/15 07:12:04;;;;;;;9.68;4.30;;;18.10;75.10;;;;;;10499094;28;20044;-56
2021/10/15 07:17:04;;;;;;;13.13;4.03;;;18.00;75.00;;;;;;10508136;28;20024;-57
2021/10/15 07:22:05;;;;;;;12.98;4.32;;;18.10;74.70;;;;;;10497419;28;20052;-55
2021/10/15 07:27:06;;;;;;;17.42;3.58;;;18.00;74.80;;;;;;10465339;28;20055;-56
2021/10/15 07:32:06;;;;;;;11.05;3.63;;;18.10;75.10;;;;;;10472329;28;20178;-56
2021/10/15 07:37:07;;;;;;;16.02;3.25;;;18.10;75.30;;;;;;10496347;28;20428;-56
2021/10/15 07:42:08;;;;;;;12.43;3.42;;;18.10;75.40;;;;;;10495358;28;20032;-57
2021/10/15 07:47:09;;;;;;;10.13;3.25;;;18.10;75.40;;;;;;10495798;28;20365;-56
2021/10/15 07:52:09;;;;;;;10.68;3.05;;;18.10;75.50;;;;;;10501207;28;20028;-56
2021/10/15 07:57:13;;;;;;;9.95;3.38;;;18.10;75.50;;;;;;10484643;28;20036;-57
2021/10/15 08:02:14;;;;;;;14.57;3.28;;;18.10;75.50;;;;;;10501206;28;20025;-58
2021/10/15 08:07:14;;;;;;;10.38;2.90;;;18.10;75.60;;;;;;10501535;28;20434;-58
2021/10/15 08:12:15;;;;;;;13.88;3.45;;;18.10;75.70;;;;;;10495469;28;20098;-57
2021/10/15 08:17:16;;;;;;;11.20;3.13;;;18.10;75.90;;;;;;10484681;28;20032;-57
2021/10/15 08:22:17;;;;;;;10.00;2.63;;;18.10;75.80;;;;;;10505995;28;20082;-57
2021/10/15 08:27:17;;;;;;;11.65;2.85;;;18.10;75.70;;;;;;10494812;28;20055;-56
2021/10/15 08:32:18;;;;;;;14.25;3.35;;;18.10;75.90;;;;;;10494755;28;20036;-57
2021/10/15 08:37:19;;;;;;;6.57;2.75;;;18.10;75.80;;;;;;10494821;28;20123;-58
2021/10/15 08:42:20;;;;;;;11.07;2.70;;;18.10;75.80;;;;;;10495453;28;20047;-57
2021/10/15 08:47:20;;;;;;;12.73;3.03;;;18.10;75.80;;;;;;10495743;28;20020;-58
2021/10/15 08:52:21;;;;;;;10.73;2.65;;;18.10;76.10;;;;;;10515976;28;20043;-58
2021/10/15 08:57:22;;;;;;;19.20;2.97;;;18.10;76.10;;;;;;10496661;28;20032;-55
2021/10/15 09:02:23;;;;;;;15.35;3.25;;;18.20;75.80;;;;;;10503217;28;20138;-57
2021/10/15 09:07:27;;;;;;;15.23;3.15;;;18.20;75.70;;;;;;10489196;28;20469;-53
2021/10/15 09:12:28;;;;;;;11.73;3.00;;;18.10;75.50;;;;;;10500407;28;20038;-53
2021/10/15 09:17:35;;;;;;;13.18;3.03;;;18.10;76.10;;;;;;10492610;28;20423;-54
2021/10/15 09:22:36;;;;;;;8.60;2.53;;;18.10;75.40;;;;;;10502689;28;20047;-53
2021/10/15 09:27:38;;;;;;;7.28;2.08;;;18.00;75.40;;;;;;10502739;28;20032;-52
2021/10/15 09:32:48;;;;;;;11.80;2.53;;;18.00;75.20;;;;;;10502557;28;20484;-51
2021/10/15 09:37:54;;;;;;;8.80;2.55;;;18.00;75.30;;;;;;10501929;28;20110;-52
2021/10/15 09:42:59;;;;;;;9.07;2.17;;;18.00;75.40;;;;;;10501024;28;20052;-54
2021/10/15 09:48:15;;;;;;;8.30;2.33;;;17.90;75.50;;;;;;10501252;28;20032;-53
2021/10/15 09:53:16;;;;;;;9.50;1.90;;;18.00;75.50;;;;;;10502315;28;20112;-55
2021/10/15 09:58:20;;;;;;;7.90;1.90;;;18.00;75.40;;;;;;10502065;28;20115;-51
2021/10/15 10:03:23;;;;;;;7.00;2.15;;;18.00;75.30;;;;;;10501281;28;20032;-53
2021/10/15 10:08:24;;;;;;;7.43;2.05;;;18.10;75.20;;;;;;10501752;28;20025;-55
2021/10/15 10:13:25;;;;;;;3.63;1.60;;;18.10;75.20;;;;;;10503601;28;20128;-54
2021/10/15 10:18:31;;;;;;;5.72;2.08;;;18.10;75.20;;;;;;10491462;28;20055;-55
2021/10/15 10:23:59;;;;;;;6.82;2.00;;;18.10;74.90;;;;;;10483563;28;20033;-57
2021/10/15 10:29:07;;;;;;;4.10;1.65;;;18.20;75.20;;;;;;10499279;28;20032;-54
2021/10/15 10:34:14;;;;;;;8.13;2.35;;;18.30;74.70;;;;;;10498596;28;20024;-54
2021/10/15 10:39:20;;;;;;;7.47;2.65;;;18.40;74.70;;;;;;10500247;28;20052;-56
2021/10/15 10:44:22;;;;;;;6.65;2.47;;;18.50;74.60;;;;;;10499911;28;20032;-55
2021/10/15 10:49:23;;;;;;;5.70;1.42;;;18.50;74.40;;;;;;10492681;28;20024;-55
2021/10/15 10:54:27;;;;;;;5.03;1.55;;;18.60;74.50;;;;;;10498950;28;20035;-55
2021/10/15 10:59:30;;;;;;;6.70;2.03;;;18.70;74.40;;;;;;10497670;28;20511;-56
2021/10/15 11:04:51;;;;;;;7.22;1.90;;;18.80;75.40;;;;;;10499630;28;20024;-53
2021/10/15 11:09:57;;;;;;;7.35;1.70;;;18.80;73.80;;;;;;10499146;28;20055;-56
2021/10/15 11:15:12;;;;;;;7.25;1.77;;;18.90;76.20;;;;;;10483661;28;20029;-48
2021/10/15 11:20:20;;;;;;;6.03;1.90;;;18.90;75.50;;;;;;10496804;28;20082;-55
2021/10/15 11:25:25;;;;;;;9.18;1.70;;;18.80;74.40;;;;;;10496968;28;20016;-59
2021/10/15 11:30:31;;;;;;;8.82;1.67;;;18.70;74.60;;;;;;10495347;28;20037;-57
2021/10/15 11:35:36;;;;;;;7.90;2.10;;;18.70;74.70;;;;;;10496803;28;20039;-57
2021/10/15 11:40:42;;;;;;;15.15;2.00;;;18.70;74.50;;;;;;10489879;28;20041;-56
2021/10/15 11:45:50;;;;;;;7.50;2.05;;;18.80;74.50;;;;;;10489690;28;20048;-57
2021/10/15 11:51:23;;;;;;;11.32;2.33;;;18.70;74.50;;;;;;10494659;28;20401;-56
2021/10/15 11:56:30;;;;;;;6.35;1.83;;;18.70;74.40;;;;;;10494995;28;20413;-56
2021/10/15 12:01:33;;;;;;;7.40;2.10;;;18.70;74.40;;;;;;10496258;28;20361;-56
2021/10/15 12:06:42;;;;;;;8.70;1.85;;;18.70;74.30;;;;;;10496667;28;20099;-56
2021/10/15 12:11:49;;;;;;;6.00;1.88;;;18.70;74.20;;;;;;10496786;28;20564;-56
2021/10/15 12:17:02;;;;;;;9.88;2.33;;;18.70;74.10;;;;;;10495360;28;20109;-57
2021/10/15 12:22:08;;;;;;;6.57;2.33;;;18.60;74.10;;;;;;10484707;28;20430;-54
2021/10/15 12:27:24;;;;;;;13.68;3.13;;;18.60;74.00;;;;;;10496450;28;20369;-54
2021/10/15 12:32:37;;;;;;;11.20;2.58;;;18.60;74.40;;;;;;10496569;28;20047;-52
2021/10/15 12:37:49;;;;;;;30.05;4.05;;;18.60;74.60;;;;;;10496266;28;20459;-54
2021/10/15 12:42:56;;;;;;;36.58;5.30;;;18.60;74.30;;;;;;10489933;28;20396;-54
2021/10/15 12:48:35;;;;;;;45.08;7.07;;;18.70;74.50;;;;;;10482900;28;20039;-53
2021/10/15 12:53:45;;;;;;;38.92;5.85;;;18.70;74.50;;;;;;10489346;28;20417;-54
2021/10/15 12:58:58;;;;;;;24.27;5.75;;;18.80;74.70;;;;;;10495230;28;20033;-55
2021/10/15 13:04:00;;;;;;;24.92;4.43;;;18.80;74.50;;;;;;10495252;28;20634;-55
2021/10/15 13:09:03;;;;;;;24.23;5.00;;;18.80;74.70;;;;;;10495622;28;20431;-54
2021/10/15 13:14:04;;;;;;;28.30;5.35;;;18.80;74.80;;;;;;10494841;28;20489;-55
2021/10/15 13:19:04;;;;;;;35.75;5.75;;;18.90;75.20;;;;;;10494146;28;20135;-55
2021/10/15 13:24:05;;;;;;;25.92;5.95;;;19.00;75.30;;;;;;10495077;28;20146;-55
2021/10/15 13:29:06;;;;;;;35.08;5.30;;;18.90;75.20;;;;;;10495156;28;20029;-56
2021/10/15 13:34:07;;;;;;;18.38;3.80;;;19.10;76.20;;;;;;10495094;28;20068;-55
2021/10/15 13:39:09;;;;;;;22.65;3.60;;;19.20;76.50;;;;;;10501044;28;20408;-55
2021/10/15 13:54:31;;;;;;;21.88;4.05;;;19.60;79.20;;;;;;10490301;28;20086;-56
2021/10/15 13:59:36;;;;;;;16.13;3.55;;;19.70;77.80;;;;;;10501552;28;20033;-55
2021/10/15 14:04:38;;;;;;;16.73;4.47;;;19.60;79.50;;;;;;10500427;28;20104;-55
2021/10/15 14:09:40;;;;;;;15.38;4.15;;;19.70;78.80;;;;;;10500188;28;20035;-56
2021/10/15 14:14:41;;;;;;;14.38;3.75;;;19.70;78.60;;;;;;10489989;28;20028;-56
2021/10/15 14:19:42;;;;;;;16.35;4.07;;;19.50;77.90;;;;;;10500857;28;20032;-56
2021/10/15 14:24:43;;;;;;;12.38;3.35;;;19.40;77.30;;;;;;10499055;28;20025;-56
2021/10/15 14:29:47;;;;;;;10.48;2.80;;;19.40;77.00;;;;;;10500137;28;20432;-56
2021/10/15 14:34:47;;;;;;;15.68;2.97;;;19.40;75.90;;;;;;10500096;28;20075;-56
2021/10/15 14:39:48;;;;;;;18.30;4.53;;;19.30;76.60;;;;;;10499195;28;20148;-56
2021/10/15 14:44:49;;;;;;;14.70;3.03;;;19.30;77.30;;;;;;10499923;28;20429;-55
2021/10/15 14:49:50;;;;;;;12.82;3.70;;;19.30;77.30;;;;;;10511319;28;20059;-56
2021/10/15 14:54:51;;;;;;;13.85;3.13;;;19.30;78.20;;;;;;10499175;28;20052;-55
2021/10/15 14:59:52;;;;;;;15.13;3.90;;;19.20;78.00;;;;;;10499745;28;20067;-56
2021/10/15 15:04:53;;;;;;;14.13;3.85;;;19.30;79.00;;;;;;10499516;28;20027;-55
2021/10/15 15:09:54;;;;;;;14.85;4.05;;;19.30;79.60;;;;;;10499586;28;20333;-56
2021/10/15 15:14:54;;;;;;;21.42;4.60;;;19.30;79.70;;;;;;10498965;28;20064;-56
2021/10/15 15:19:55;;;;;;;22.95;5.85;;;19.40;79.30;;;;;;10498528;28;20029;-56
2021/10/15 15:24:56;;;;;;;22.42;5.45;;;19.40;81.50;;;;;;10498568;28;20024;-53
2021/10/15 15:29:57;;;;;;;15.60;4.40;;;19.40;81.30;;;;;;10497717;28;20120;-55
2021/10/15 15:34:57;;;;;;;18.83;4.68;;;19.30;81.90;;;;;;10497975;28;20041;-55
2021/10/15 15:39:58;;;;;;;18.95;4.60;;;19.30;81.10;;;;;;10498252;28;20076;-54
2021/10/15 15:45:01;;;;;;;15.60;4.18;;;19.10;80.70;;;;;;10498090;28;20032;-54
2021/10/15 15:50:03;;;;;;;12.98;4.25;;;19.20;80.20;;;;;;10488671;28;20055;-49
2021/10/15 15:55:05;;;;;;;19.83;4.30;;;19.30;79.50;;;;;;10496951;28;20032;-52
2021/10/15 16:00:06;;;;;;;16.25;5.13;;;19.50;79.10;;;;;;10495029;28;20032;-54
2021/10/15 16:05:09;;;;;;;17.60;4.18;;;19.60;79.10;;;;;;10497304;28;20044;-53
2021/10/15 16:10:11;;;;;;;18.08;3.83;;;19.50;77.50;;;;;;10495780;28;20021;-56
2021/10/15 16:15:12;;;;;;;10.32;3.65;;;19.40;76.40;;;;;;10486120;28;20033;-50
2021/10/15 16:20:13;;;;;;;17.35;3.50;;;19.30;74.50;;;;;;10495987;28;20498;-52
2021/10/15 16:25:14;;;;;;;19.30;3.80;;;19.20;73.70;;;;;;10496872;28;20107;-51
2021/10/15 16:30:15;;;;;;;18.48;4.00;;;19.00;73.20;;;;;;10493239;28;20104;-47
2021/10/15 16:35:15;;;;;;;17.17;3.00;;;18.90;73.10;;;;;;10496565;28;20028;-48
2021/10/15 16:40:17;;;;;;;13.07;2.95;;;19.00;71.90;;;;;;10496014;28;20516;-47
2021/10/15 16:45:18;;;;;;;18.13;3.40;;;19.00;72.10;;;;;;10496538;28;20124;-48
2021/10/15 16:50:18;;;;;;;12.10;3.00;;;18.90;72.60;;;;;;10503434;28;20077;-46
2021/10/15 16:55:19;;;;;;;12.73;2.88;;;18.80;73.10;;;;;;10496170;28;20116;-50
2021/10/15 17:00:20;;;;;;;13.52;2.50;;;18.60;73.80;;;;;;10488268;28;20078;-48
2021/10/15 17:05:21;;;;;;;9.32;2.67;;;18.50;72.70;;;;;;10486862;28;20076;-47
2021/10/15 17:10:21;;;;;;;11.73;2.22;;;18.40;72.40;;;;;;10497275;28;20439;-47
2021/10/15 17:15:22;;;;;;;9.93;3.00;;;18.40;72.70;;;;;;10502664;28;20119;-47
2021/10/15 17:20:23;;;;;;;6.10;2.22;;;18.50;72.00;;;;;;10494353;28;20058;-47
2021/10/15 17:25:24;;;;;;;11.02;2.70;;;18.40;72.10;;;;;;10501138;28;20103;-46
2021/10/15 17:30:24;;;;;;;8.48;2.25;;;18.50;72.20;;;;;;10499845;28;20437;-47
2021/10/15 17:35:25;;;;;;;9.43;2.30;;;18.50;72.50;;;;;;10499861;28;20032;-47
2021/10/15 17:40:26;;;;;;;11.90;2.38;;;18.50;72.60;;;;;;10484996;28;20064;-47
2021/10/15 17:45:29;;;;;;;8.40;2.50;;;18.50;72.70;;;;;;10494405;28;20028;-47
2021/10/15 17:50:29;;;;;;;11.38;2.30;;;18.40;72.40;;;;;;10494050;28;20386;-47
2021/10/15 17:55:31;;;;;;;7.28;1.95;;;18.40;72.40;;;;;;10515010;28;20063;-46
2021/10/15 18:00:31;;;;;;;10.60;2.30;;;18.40;72.50;;;;;;10500024;28;20036;-48
2021/10/15 18:05:32;;;;;;;5.95;1.65;;;18.40;72.50;;;;;;10492301;28;20086;-48
2021/10/15 18:10:33;;;;;;;10.45;3.03;;;18.30;72.40;;;;;;10499010;28;20115;-49
2021/10/15 18:15:37;;;;;;;8.38;3.40;;;18.40;72.70;;;;;;10499232;28;20038;-51
2021/10/15 18:20:37;;;;;;;12.07;2.85;;;18.40;72.70;;;;;;10499299;28;20480;-48
2021/10/15 18:25:38;;;;;;;8.18;2.03;;;18.30;72.50;;;;;;10498191;28;20029;-50
2021/10/15 18:30:39;;;;;;;6.82;2.20;;;18.30;72.70;;;;;;10499775;28;20056;-47
2021/10/15 18:35:40;;;;;;;11.68;2.25;;;18.30;73.00;;;;;;10500619;28;20020;-47
2021/10/15 18:40:40;;;;;;;6.10;2.03;;;18.20;72.90;;;;;;10498286;28;20040;-49
2021/10/15 18:45:41;;;;;;;6.40;1.67;;;18.20;73.00;;;;;;10498780;28;20112;-51
2021/10/15 18:50:43;;;;;;;6.55;2.17;;;18.20;73.00;;;;;;10497426;28;20035;-48
2021/10/15 18:55:44;;;;;;;6.43;1.95;;;18.10;72.90;;;;;;10497087;28;20040;-50
2021/10/15 19:00:45;;;;;;;11.60;2.60;;;18.10;73.00;;;;;;10497699;28;20025;-53
2021/10/15 19:05:46;;;;;;;4.75;2.03;;;18.10;72.90;;;;;;10499402;28;20104;-49
2021/10/15 19:10:47;;;;;;;5.78;1.50;;;18.10;73.00;;;;;;10495889;28;20029;-51
2021/10/15 19:15:48;;;;;;;4.45;1.88;;;18.10;73.10;;;;;;10495990;28;20028;-47
2021/10/15 19:20:49;;;;;;;5.32;1.83;;;18.00;72.80;;;;;;10495675;28;20052;-48
2021/10/15 19:25:50;;;;;;;6.15;1.77;;;18.00;72.60;;;;;;10498697;28;20028;-47
2021/10/15 19:30:50;;;;;;;3.80;1.55;;;18.00;72.70;;;;;;10498939;28;20028;-49
2021/10/15 19:35:51;;;;;;;9.30;2.10;;;18.00;72.60;;;;;;10497906;28;20063;-49
2021/10/15 19:40:52;;;;;;;6.93;2.20;;;18.00;72.60;;;;;;10498314;28;20064;-48
2021/10/15 19:45:54;;;;;;;5.45;1.63;;;17.90;72.50;;;;;;10484373;28;20024;-47
2021/10/15 19:50:55;;;;;;;4.60;1.55;;;17.90;72.30;;;;;;10509289;28;20031;-49
2021/10/15 19:55:56;;;;;;;9.50;1.70;;;17.90;71.90;;;;;;10496789;28;20033;-47
2021/10/15 20:00:56;;;;;;;4.28;1.50;;;17.90;71.90;;;;;;10497939;28;20074;-48
2021/10/15 20:05:57;;;;;;;3.95;1.40;;;17.90;71.60;;;;;;10498038;28;20111;-47
2021/10/15 20:10:58;;;;;;;8.38;1.42;;;17.80;71.80;;;;;;10497958;28;20490;-49
2021/10/15 20:15:58;;;;;;;4.32;1.52;;;17.80;71.30;;;;;;10497241;28;20115;-48
2021/10/15 20:20:59;;;;;;;3.35;1.48;;;17.80;71.20;;;;;;10497592;28;20107;-48
2021/10/15 20:26:02;;;;;;;5.47;1.75;;;17.80;71.00;;;;;;10497356;28;20107;-48
2021/10/15 20:31:03;;;;;;;4.60;1.40;;;17.80;71.00;;;;;;10496962;28;20135;-48
2021/10/15 20:36:05;;;;;;;4.30;1.35;;;17.80;70.80;;;;;;10497411;28;20041;-47
2021/10/15 20:41:06;;;;;;;4.63;1.65;;;17.70;70.70;;;;;;10495567;28;20047;-48
2021/10/15 20:46:06;;;;;;;5.30;1.48;;;17.70;70.60;;;;;;10484020;28;20048;-48
2021/10/15 20:51:07;;;;;;;2.92;1.08;;;17.70;70.50;;;;;;10516324;28;20047;-48
2021/10/15 20:56:09;;;;;;;4.28;1.38;;;17.70;70.40;;;;;;10505394;28;20114;-47
2021/10/15 21:01:10;;;;;;;3.15;1.10;;;17.70;70.40;;;;;;10504925;28;20134;-47
2021/10/15 21:06:11;;;;;;;2.90;1.30;;;17.60;70.20;;;;;;10504866;28;20024;-47
2021/10/15 21:11:12;;;;;;;4.03;1.58;;;17.70;70.30;;;;;;10504790;28;20020;-47
2021/10/15 21:16:13;;;;;;;2.85;1.40;;;17.60;70.10;;;;;;10504508;28;20149;-46
2021/10/15 21:21:13;;;;;;;2.58;1.40;;;17.60;70.00;;;;;;10504327;28;20064;-47
2021/10/15 21:26:15;;;;;;;5.07;1.60;;;17.60;70.00;;;;;;10504056;28;20025;-47
2021/10/15 21:31:17;;;;;;;3.72;1.58;;;17.60;69.90;;;;;;10504237;28;20025;-48
2021/10/15 21:36:17;;;;;;;4.25;1.80;;;17.60;69.70;;;;;;10503653;28;20082;-47
2021/10/15 21:41:18;;;;;;;4.18;1.10;;;17.60;69.80;;;;;;10503382;28;20017;-50
2021/10/15 21:46:19;;;;;;;3.80;1.58;;;17.50;69.70;;;;;;10503192;28;20078;-49
2021/10/15 21:51:19;;;;;;;5.60;1.85;;;17.60;70.50;;;;;;10514171;28;20056;-47
2021/10/15 21:56:20;;;;;;;4.68;1.50;;;17.60;70.40;;;;;;10501883;28;20109;-48
2021/10/15 22:01:21;;;;;;;2.65;1.40;;;17.60;70.30;;;;;;10502449;28;20060;-48
2021/10/15 22:06:21;;;;;;;4.47;1.92;;;17.60;70.00;;;;;;10502435;28;20028;-47
2021/10/15 22:11:22;;;;;;;3.75;1.75;;;17.60;70.50;;;;;;10501890;28;20048;-47
2021/10/15 22:16:24;;;;;;;4.65;1.58;;;17.60;70.30;;;;;;10489669;28;20028;-47
2021/10/15 22:21:24;;;;;;;4.55;1.45;;;17.50;70.10;;;;;;10501868;28;20037;-47
2021/10/15 22:26:25;;;;;;;7.07;1.58;;;17.50;69.90;;;;;;10501838;28;20099;-46
2021/10/15 22:31:26;;;;;;;4.20;1.92;;;17.50;69.80;;;;;;10501589;28;20063;-47
2021/10/15 22:36:27;;;;;;;5.05;1.60;;;17.50;69.70;;;;;;10501076;28;20032;-47
2021/10/15 22:41:27;;;;;;;5.68;1.80;;;17.50;69.50;;;;;;10499442;28;20048;-48
2021/10/15 22:46:28;;;;;;;3.20;1.50;;;17.50;69.40;;;;;;10500923;28;20037;-49
2021/10/15 22:51:29;;;;;;;3.75;1.45;;;17.40;69.50;;;;;;10511763;28;20124;-47
2021/10/15 22:56:29;;;;;;;3.13;1.55;;;17.50;68.90;;;;;;10500221;28;20469;-46
2021/10/15 23:01:30;;;;;;;3.67;1.52;;;17.50;68.60;;;;;;10500276;28;20121;-48
2021/10/15 23:06:31;;;;;;;4.22;2.00;;;17.50;68.60;;;;;;10499211;28;20032;-48
2021/10/15 23:11:32;;;;;;;7.53;1.80;;;17.50;68.60;;;;;;10499588;28;20036;-47
2021/10/15 23:16:32;;;;;;;3.88;2.03;;;17.50;68.70;;;;;;10499279;28;20054;-47
2021/10/15 23:21:33;;;;;;;3.22;1.60;;;17.50;68.70;;;;;;10499387;28;20047;-47
2021/10/15 23:26:34;;;;;;;3.72;1.38;;;17.50;68.70;;;;;;10497875;28;20449;-46
2021/10/15 23:31:34;;;;;;;2.67;1.70;;;17.50;69.10;;;;;;10499181;28;20115;-47
2021/10/15 23:36:35;;;;;;;3.80;1.77;;;17.40;68.60;;;;;;10498572;28;20062;-46
2021/10/15 23:41:36;;;;;;;5.03;1.90;;;17.50;68.00;;;;;;10498793;28;20111;-47
2021/10/15 23:46:36;;;;;;;5.55;1.75;;;17.50;67.70;;;;;;10498300;28;20067;-45
2021/10/15 23:51:37;;;;;;;4.97;1.80;;;17.60;67.60;;;;;;10509850;28;20448;-46
2021/10/15 23:56:38;;;;;;;6.95;1.80;;;17.60;67.60;;;;;;10497636;28;20042;-45
